Terminal Aerodrome Forecast
Issued by NWS

Home | Current Version | Previous Version | Text Only | Print | Product List | Glossary On
Versions: 1 2 3 4 5 6 7 8 9 10 11 12 13 14 15 16 17 18
000
FTUS43 KGRR 211751
TAFBTL
TAF
KBTL 211751Z 2118/2218 20007KT P6SM SCT150 OVC250
     FM212100 26004KT P6SM OVC110
     FM220400 00000KT P6SM SCT130=

USA.gov is the U.S. government's official web portal to all federal, state and local government web resources and services.